createdAt,value
2023-02-11T00:02:09.222Z,6.06
2023-02-11T00:04:35.593Z,6.08
2023-02-11T00:07:02.074Z,6.09
2023-02-11T00:09:30.902Z,6.12
2023-02-11T00:11:58.133Z,6.11
2023-02-11T00:14:24.462Z,6.14
2023-02-11T00:16:50.806Z,6.13
2023-02-11T00:19:17.179Z,6.10
2023-02-11T00:21:43.643Z,6.04
2023-02-11T00:24:10.055Z,6.06
2023-02-11T00:26:36.544Z,6.09
2023-02-11T00:29:04.672Z,6.05
2023-02-11T00:31:31.362Z,6.09
2023-02-11T00:33:57.846Z,6.11
2023-02-11T00:36:26.891Z,6.10
2023-02-11T00:38:54.956Z,6.12
2023-02-11T00:41:22.123Z,6.09
2023-02-11T00:43:48.975Z,6.11
2023-02-11T00:46:17.360Z,6.11
2023-02-11T00:48:43.811Z,6.14
2023-02-11T00:51:10.415Z,6.13
2023-02-11T00:53:37.501Z,6.13
2023-02-11T00:56:04.442Z,6.16
2023-02-11T00:58:31.396Z,6.19
2023-02-11T01:00:57.793Z,6.22
2023-02-11T01:03:24.839Z,6.25
2023-02-11T01:05:51.912Z,6.18
2023-02-11T01:08:18.914Z,6.25
2023-02-11T01:10:45.343Z,6.18
2023-02-11T01:13:11.783Z,6.17
2023-02-11T01:15:38.165Z,6.21
2023-02-11T01:18:05.922Z,6.18
2023-02-11T01:20:32.276Z,6.23
2023-02-11T01:22:58.666Z,6.23
2023-02-11T01:25:25.043Z,6.20
2023-02-11T01:27:51.405Z,6.21
2023-02-11T01:30:17.752Z,6.22
2023-02-11T01:32:46.061Z,6.16
2023-02-11T01:35:12.441Z,6.16
2023-02-11T01:37:38.798Z,6.20
2023-02-11T01:40:08.470Z,6.18
2023-02-11T01:42:34.909Z,6.16
2023-02-11T01:45:21.891Z,6.22
2023-02-11T01:47:48.289Z,6.18
2023-02-11T01:50:14.842Z,6.22
2023-02-11T01:52:42.502Z,6.17
2023-02-11T01:55:30.829Z,6.20
2023-02-11T01:58:02.318Z,6.20
2023-02-11T02:00:36.621Z,6.20
2023-02-11T02:03:07.911Z,6.22
2023-02-11T02:05:48.274Z,6.22
2023-02-11T02:08:14.799Z,6.23
2023-02-11T02:10:45.678Z,6.25
2023-02-11T02:13:12.955Z,6.20
2023-02-11T02:15:44.597Z,6.19
2023-02-11T02:18:50.970Z,6.18
2023-02-11T02:21:51.285Z,6.17
2023-02-11T02:24:41.862Z,6.20
2023-02-11T02:27:27.724Z,6.10
2023-02-11T02:30:11.057Z,6.06
2023-02-11T02:32:54.086Z,6.01
2023-02-11T02:35:33.229Z,6.01
2023-02-11T02:38:13.213Z,6.00
2023-02-11T02:40:51.711Z,6.01
2023-02-11T02:43:19.164Z,6.04
2023-02-11T02:45:45.580Z,6.01
2023-02-11T02:48:33.042Z,6.01
2023-02-11T02:51:27.179Z,5.99
2023-02-11T02:54:24.286Z,5.97
2023-02-11T02:56:55.419Z,6.03
2023-02-11T02:59:53.852Z,5.95
2023-02-11T03:02:31.289Z,5.96
2023-02-11T03:05:06.063Z,5.93
2023-02-11T03:07:43.901Z,5.99
2023-02-11T03:10:20.011Z,6.00
2023-02-11T03:12:48.304Z,6.01
2023-02-11T03:15:17.097Z,5.94
2023-02-11T03:17:49.717Z,5.89
2023-02-11T03:20:18.750Z,5.92
2023-02-11T03:22:53.762Z,5.86
2023-02-11T03:25:21.154Z,5.92
2023-02-11T03:27:53.298Z,5.90
2023-02-11T03:30:22.623Z,5.84
2023-02-11T03:32:52.446Z,5.82
2023-02-11T03:35:25.009Z,5.79
2023-02-11T03:38:06.642Z,5.79
2023-02-11T03:40:38.174Z,5.74
2023-02-11T03:43:10.913Z,5.68
2023-02-11T03:45:38.327Z,5.64
2023-02-11T03:48:27.850Z,5.68
2023-02-11T03:50:55.384Z,5.66
2023-02-11T03:53:22.897Z,5.67
2023-02-11T03:55:51.848Z,5.59
2023-02-11T03:58:18.542Z,5.56
2023-02-11T04:00:45.082Z,5.51
2023-02-11T04:03:12.594Z,5.45
2023-02-11T04:05:39.365Z,5.38
2023-02-11T04:08:05.938Z,5.30
2023-02-11T04:10:32.696Z,5.29
2023-02-11T04:12:59.091Z,5.29
2023-02-11T04:15:25.579Z,5.31
2023-02-11T04:17:51.996Z,5.22
2023-02-11T04:20:18.479Z,5.32
2023-02-11T04:22:44.833Z,5.24
2023-02-11T04:25:11.221Z,5.28
2023-02-11T04:27:37.806Z,5.27
2023-02-11T04:30:05.982Z,5.21
2023-02-11T04:32:32.382Z,5.19
2023-02-11T04:34:58.751Z,5.24
2023-02-11T04:37:25.143Z,5.26
2023-02-11T04:39:51.496Z,5.26
2023-02-11T04:42:17.858Z,5.27
2023-02-11T04:44:44.269Z,5.27
2023-02-11T04:47:12.603Z,5.28
2023-02-11T04:49:39.262Z,5.27
2023-02-11T04:52:05.821Z,5.28
2023-02-11T04:54:32.197Z,5.32
2023-02-11T04:56:58.585Z,5.26
2023-02-11T04:59:25.047Z,5.26
2023-02-11T05:01:51.440Z,5.31
2023-02-11T05:04:18.290Z,5.25
2023-02-11T05:06:44.863Z,5.28
2023-02-11T05:09:12.932Z,5.30
2023-02-11T05:11:39.995Z,5.29
2023-02-11T05:14:06.955Z,5.27
2023-02-11T05:16:33.925Z,5.33
2023-02-11T05:19:00.603Z,5.32
2023-02-11T05:21:27.010Z,5.33
2023-02-11T05:23:53.501Z,5.35
2023-02-11T05:26:19.892Z,5.40
2023-02-11T05:28:46.428Z,5.29
2023-02-11T05:31:14.520Z,5.32
2023-02-11T05:33:41.502Z,5.31
2023-02-11T05:36:10.384Z,5.32
2023-02-11T05:38:37.734Z,5.28
2023-02-11T05:41:05.507Z,5.31
2023-02-11T05:43:31.904Z,5.34
2023-02-11T05:45:58.308Z,5.39
2023-02-11T05:48:24.700Z,5.35
2023-02-11T05:50:51.084Z,5.33
2023-02-11T05:53:17.461Z,5.39
2023-02-11T05:55:43.989Z,5.41
2023-02-11T05:58:10.380Z,5.40
2023-02-11T06:00:37.478Z,5.41
2023-02-11T06:03:04.483Z,5.31
2023-02-11T06:05:31.464Z,5.37
2023-02-11T06:07:58.145Z,5.37
2023-02-11T06:10:24.509Z,5.41
2023-02-11T06:12:50.883Z,5.40
2023-02-11T06:15:17.273Z,5.39
2023-02-11T06:17:43.641Z,5.36
2023-02-11T06:20:10.927Z,5.40
2023-02-11T06:22:37.575Z,5.35
2023-02-11T06:25:04.383Z,5.35
2023-02-11T06:27:30.837Z,5.40
2023-02-11T06:29:57.253Z,5.44
2023-02-11T06:32:42.799Z,5.45
2023-02-11T06:35:12.096Z,5.38
2023-02-11T06:37:39.133Z,5.44
2023-02-11T06:40:06.218Z,5.43
2023-02-11T06:42:32.716Z,5.46
2023-02-11T06:44:59.088Z,5.45
2023-02-11T06:47:25.475Z,5.45
2023-02-11T06:49:51.888Z,5.44
2023-02-11T06:52:18.283Z,5.42
2023-02-11T06:54:44.654Z,5.41
2023-02-11T06:57:11.089Z,5.43
2023-02-11T06:59:37.474Z,5.43
2023-02-11T07:02:03.884Z,5.42
2023-02-11T07:04:30.299Z,5.41
2023-02-11T07:06:56.661Z,5.45
2023-02-11T07:09:23.031Z,5.46
2023-02-11T07:11:49.397Z,5.46
2023-02-11T07:14:15.834Z,5.45
2023-02-11T07:16:42.205Z,5.38
2023-02-11T07:19:08.580Z,5.40
2023-02-11T07:21:35.055Z,5.47
2023-02-11T07:24:02.023Z,5.46
2023-02-11T07:26:29.089Z,5.48
2023-02-11T07:28:55.816Z,5.51
2023-02-11T07:31:26.506Z,5.49
2023-02-11T07:33:55.069Z,5.51
2023-02-11T07:36:21.787Z,5.54
2023-02-11T07:38:48.381Z,5.62
2023-02-11T07:41:17.954Z,5.58
2023-02-11T07:43:44.779Z,5.53
2023-02-11T07:46:13.997Z,5.64
2023-02-11T07:48:40.478Z,5.63
2023-02-11T07:51:24.309Z,5.67
2023-02-11T07:53:52.004Z,5.69
2023-02-11T07:56:20.358Z,5.68
2023-02-11T07:58:46.812Z,5.64
2023-02-11T08:01:17.139Z,5.67
2023-02-11T08:03:43.594Z,5.67
2023-02-11T08:06:15.233Z,5.72
2023-02-11T08:08:42.644Z,5.75
2023-02-11T08:11:11.093Z,5.74
2023-02-11T08:13:37.640Z,5.71
2023-02-11T08:16:04.874Z,5.67
2023-02-11T08:18:32.251Z,5.71
2023-02-11T08:21:09.342Z,5.73
2023-02-11T08:23:36.995Z,5.73
2023-02-11T08:26:09.162Z,5.73
2023-02-11T08:28:37.352Z,5.75
2023-02-11T08:31:08.787Z,5.80
2023-02-11T08:33:35.814Z,5.85
2023-02-11T08:36:08.314Z,5.81
2023-02-11T08:38:34.762Z,5.82
2023-02-11T08:41:01.172Z,5.85
2023-02-11T08:43:27.580Z,5.82
2023-02-11T08:45:54.216Z,5.84
2023-02-11T08:48:20.692Z,5.84
2023-02-11T08:50:47.181Z,5.84
2023-02-11T08:53:13.546Z,5.94
2023-02-11T08:55:39.901Z,5.99
2023-02-11T08:58:06.261Z,5.99
2023-02-11T09:00:32.638Z,6.03
2023-02-11T09:02:59.056Z,6.01
2023-02-11T09:05:25.473Z,6.04
2023-02-11T09:07:51.918Z,6.01
2023-02-11T09:10:18.903Z,6.01
2023-02-11T09:12:45.267Z,6.05
2023-02-11T09:15:11.633Z,6.09
2023-02-11T09:17:37.988Z,6.12
2023-02-11T09:20:04.746Z,6.14
2023-02-11T09:22:31.137Z,6.13
2023-02-11T09:24:57.516Z,6.15
2023-02-11T09:27:23.877Z,6.16
2023-02-11T09:29:50.416Z,6.23
2023-02-11T09:32:16.903Z,6.21
2023-02-11T09:34:43.381Z,6.21
2023-02-11T09:37:09.890Z,6.21
2023-02-11T09:39:36.309Z,6.24
2023-02-11T09:42:05.318Z,6.28
2023-02-11T09:44:34.036Z,6.26
2023-02-11T09:47:17.351Z,6.29
2023-02-11T09:49:50.421Z,6.31
2023-02-11T09:52:40.386Z,6.38
2023-02-11T09:55:18.588Z,6.40
2023-02-11T09:57:45.112Z,6.42
2023-02-11T10:00:23.313Z,6.39
2023-02-11T10:03:14.733Z,6.46
2023-02-11T10:06:03.681Z,6.47
2023-02-11T10:08:58.992Z,6.54
2023-02-11T10:11:36.489Z,6.56
2023-02-11T10:14:27.910Z,6.59
2023-02-11T10:17:25.206Z,6.62
2023-02-11T10:19:57.762Z,6.66
2023-02-11T10:22:37.480Z,6.70
2023-02-11T10:25:21.668Z,6.69
2023-02-11T10:27:49.564Z,6.71
2023-02-11T10:30:26.418Z,6.76
2023-02-11T10:33:25.397Z,6.83
2023-02-11T10:35:51.802Z,6.80
2023-02-11T10:38:18.372Z,6.84
2023-02-11T10:40:45.718Z,6.85
2023-02-11T10:43:15.279Z,6.91
2023-02-11T10:45:50.687Z,6.86
2023-02-11T10:48:51.704Z,6.89
2023-02-11T10:51:23.775Z,6.88
2023-02-11T10:54:05.344Z,6.91
2023-02-11T10:56:41.026Z,6.97
2023-02-11T10:59:14.350Z,6.99
2023-02-11T11:01:46.127Z,6.95
2023-02-11T11:04:34.132Z,7.00
2023-02-11T11:07:22.782Z,6.95
2023-02-11T11:09:59.479Z,6.93
2023-02-11T11:12:25.804Z,6.89
2023-02-11T11:14:55.914Z,6.87
2023-02-11T11:17:22.346Z,6.90
2023-02-11T11:19:48.713Z,6.99
2023-02-11T11:22:22.485Z,6.95
2023-02-11T11:24:55.148Z,7.03
2023-02-11T11:27:24.400Z,6.99
2023-02-11T11:29:55.201Z,6.95
2023-02-11T11:32:29.648Z,6.99
2023-02-11T11:35:00.735Z,7.01
2023-02-11T11:37:34.076Z,7.02
2023-02-11T11:40:07.791Z,7.08
2023-02-11T11:42:36.816Z,7.12
2023-02-11T11:45:26.628Z,7.09
2023-02-11T11:48:03.097Z,7.11
2023-02-11T11:50:44.032Z,7.20
2023-02-11T11:53:31.471Z,7.16
2023-02-11T11:56:12.906Z,7.21
2023-02-11T11:58:39.459Z,7.22
2023-02-11T12:01:14.986Z,7.20
2023-02-11T12:04:10.870Z,7.19
2023-02-11T12:06:55.849Z,7.31
2023-02-11T12:09:39.068Z,7.35
2023-02-11T12:12:26.690Z,7.35
2023-02-11T12:15:20.354Z,7.30
2023-02-11T12:17:55.970Z,7.30
2023-02-11T12:20:31.334Z,7.28
2023-02-11T12:23:35.369Z,7.28
2023-02-11T12:26:12.392Z,7.34
2023-02-11T12:28:53.992Z,7.40
2023-02-11T12:31:35.272Z,7.43
2023-02-11T12:34:26.573Z,7.45
2023-02-11T12:37:20.047Z,7.43
2023-02-11T12:39:51.126Z,7.49
2023-02-11T12:42:55.130Z,7.54
2023-02-11T12:46:00.622Z,7.63
2023-02-11T12:48:43.409Z,7.64
2023-02-11T12:51:19.632Z,7.57
2023-02-11T12:54:21.273Z,7.58
2023-02-11T12:57:14.969Z,7.61
2023-02-11T12:59:51.941Z,7.70
2023-02-11T13:03:00.823Z,7.66
2023-02-11T13:05:46.179Z,7.78
2023-02-11T13:08:49.929Z,7.80
2023-02-11T13:11:34.704Z,7.80
2023-02-11T13:14:06.419Z,7.89
2023-02-11T13:16:38.250Z,7.89
2023-02-11T13:19:13.502Z,7.99
2023-02-11T13:21:48.159Z,8.00
2023-02-11T13:24:37.616Z,8.07
2023-02-11T13:27:11.449Z,8.03
2023-02-11T13:30:13.795Z,7.97
2023-02-11T13:33:04.680Z,8.00
2023-02-11T13:35:40.168Z,7.96
2023-02-11T13:38:19.141Z,7.92
2023-02-11T13:40:59.541Z,7.92
2023-02-11T13:43:30.559Z,7.95
2023-02-11T13:46:21.668Z,7.88
2023-02-11T13:48:52.481Z,7.87
2023-02-11T13:51:35.329Z,7.83
2023-02-11T13:54:03.180Z,7.80
2023-02-11T13:56:34.041Z,7.93
2023-02-11T13:59:04.025Z,7.93
2023-02-11T14:02:23.024Z,7.95
2023-02-11T14:05:23.246Z,7.96
2023-02-11T14:08:29.834Z,8.17
2023-02-11T14:10:57.661Z,8.30
2023-02-11T14:13:37.321Z,8.38
2023-02-11T14:16:17.102Z,8.45
2023-02-11T14:18:46.734Z,8.50
2023-02-11T14:21:22.857Z,8.56
2023-02-11T14:23:53.186Z,8.68
2023-02-11T14:26:20.086Z,8.68
2023-02-11T14:29:16.020Z,8.68
2023-02-11T14:32:05.348Z,8.65
2023-02-11T14:35:02.200Z,8.63
2023-02-11T14:38:00.582Z,8.67
2023-02-11T14:40:33.011Z,8.60
2023-02-11T14:43:24.302Z,8.59
2023-02-11T14:45:54.822Z,8.51
2023-02-11T14:48:29.770Z,8.60
2023-02-11T14:51:06.644Z,8.59
2023-02-11T14:53:34.269Z,8.58
2023-02-11T14:56:00.711Z,8.59
2023-02-11T14:58:29.971Z,8.63
2023-02-11T15:01:01.247Z,8.63
2023-02-11T15:03:35.309Z,8.61
2023-02-11T15:06:16.539Z,8.67
2023-02-11T15:08:47.176Z,8.65
2023-02-11T15:11:17.789Z,8.71
2023-02-11T15:13:47.430Z,8.67
2023-02-11T15:16:18.434Z,8.63
2023-02-11T15:18:48.381Z,8.61
2023-02-11T15:21:24.557Z,8.56
2023-02-11T15:24:05.970Z,8.60
2023-02-11T15:26:33.122Z,8.65
2023-02-11T15:29:00.124Z,8.63
2023-02-11T15:31:28.357Z,8.60
2023-02-11T15:33:55.142Z,8.62
2023-02-11T15:36:28.422Z,8.55
2023-02-11T15:39:17.325Z,8.55
2023-02-11T15:41:44.515Z,8.60
2023-02-11T15:44:31.242Z,8.51
2023-02-11T15:46:58.404Z,8.59
2023-02-11T15:49:26.122Z,8.51
2023-02-11T15:51:56.797Z,8.51
2023-02-11T15:54:27.439Z,8.51
2023-02-11T15:57:01.602Z,8.54
2023-02-11T15:59:38.761Z,8.49
2023-02-11T16:02:09.458Z,8.44
2023-02-11T16:04:36.323Z,8.45
2023-02-11T16:07:03.008Z,8.50
2023-02-11T16:09:34.959Z,8.47
2023-02-11T16:12:18.644Z,8.46
2023-02-11T16:14:45.077Z,8.52
2023-02-11T16:17:25.085Z,8.50
2023-02-11T16:19:53.517Z,8.53
2023-02-11T16:22:24.894Z,8.52
2023-02-11T16:24:54.002Z,8.49
2023-02-11T16:27:39.586Z,8.44
2023-02-11T16:30:21.722Z,8.44
2023-02-11T16:32:48.091Z,8.36
2023-02-11T16:35:14.436Z,8.40
2023-02-11T16:37:40.768Z,8.36
2023-02-11T16:40:07.949Z,8.37
2023-02-11T16:42:34.303Z,8.31
2023-02-11T16:45:00.723Z,8.24
2023-02-11T16:47:28.318Z,8.25
2023-02-11T16:49:56.028Z,8.21
2023-02-11T16:52:23.078Z,8.23
2023-02-11T16:54:51.353Z,8.21
2023-02-11T16:57:21.101Z,8.19
2023-02-11T16:59:48.007Z,8.20
2023-02-11T17:02:32.742Z,8.17
2023-02-11T17:05:01.726Z,8.15
2023-02-11T17:07:28.772Z,8.18
2023-02-11T17:09:56.037Z,8.16
2023-02-11T17:12:25.242Z,8.17
2023-02-11T17:14:52.274Z,8.22
2023-02-11T17:17:18.663Z,8.21
2023-02-11T17:19:45.023Z,8.23
2023-02-11T17:22:11.904Z,8.22
2023-02-11T17:24:38.238Z,8.21
2023-02-11T17:27:04.700Z,8.21
2023-02-11T17:29:31.140Z,8.19
2023-02-11T17:31:57.540Z,8.20
2023-02-11T17:34:24.123Z,8.17
2023-02-11T17:36:50.695Z,8.14
2023-02-11T17:39:17.079Z,8.11
2023-02-11T17:41:43.467Z,8.15
2023-02-11T17:44:12.067Z,8.08
2023-02-11T17:46:38.420Z,8.13
2023-02-11T17:49:04.851Z,8.08
2023-02-11T17:51:33.930Z,8.09
2023-02-11T17:54:03.536Z,8.09
2023-02-11T17:56:33.107Z,8.12
2023-02-11T17:58:59.552Z,8.10
2023-02-11T18:01:30.953Z,8.09
2023-02-11T18:03:57.680Z,8.10
2023-02-11T18:06:24.476Z,8.01
2023-02-11T18:08:50.907Z,8.04
2023-02-11T18:11:17.693Z,7.98
2023-02-11T18:13:45.247Z,7.97
2023-02-11T18:16:15.666Z,7.94
2023-02-11T18:18:43.361Z,8.02
2023-02-11T18:21:15.505Z,7.95
2023-02-11T18:23:42.727Z,7.97
2023-02-11T18:26:10.904Z,8.00
2023-02-11T18:28:38.300Z,7.99
2023-02-11T18:31:05.823Z,8.00
2023-02-11T18:33:32.846Z,8.05
2023-02-11T18:35:59.201Z,8.00
2023-02-11T18:38:25.574Z,7.98
2023-02-11T18:40:52.337Z,8.02
2023-02-11T18:43:19.846Z,8.08
2023-02-11T18:45:47.890Z,8.04
2023-02-11T18:48:15.277Z,8.05
2023-02-11T18:50:44.378Z,8.01
2023-02-11T18:53:12.853Z,7.99
2023-02-11T18:55:40.811Z,8.00
2023-02-11T18:58:07.225Z,8.04
2023-02-11T19:00:34.660Z,7.94
2023-02-11T19:03:01.277Z,7.97
2023-02-11T19:05:29.799Z,7.97
2023-02-11T19:07:56.455Z,8.02
2023-02-11T19:10:23.797Z,7.94
2023-02-11T19:12:53.630Z,7.96
2023-02-11T19:15:19.987Z,7.91
2023-02-11T19:17:46.306Z,7.99
2023-02-11T19:20:12.678Z,7.94
2023-02-11T19:22:39.006Z,7.93
2023-02-11T19:25:05.775Z,7.94
2023-02-11T19:27:32.188Z,7.94
2023-02-11T19:29:58.582Z,7.93
2023-02-11T19:32:24.991Z,7.93
2023-02-11T19:34:52.048Z,7.87
2023-02-11T19:37:18.600Z,7.90
2023-02-11T19:39:45.253Z,7.85
2023-02-11T19:42:12.452Z,7.86
2023-02-11T19:44:38.944Z,7.87
2023-02-11T19:47:06.766Z,7.86
2023-02-11T19:49:33.641Z,7.86
2023-02-11T19:52:00.054Z,7.86
2023-02-11T19:54:28.951Z,7.80
2023-02-11T19:56:55.671Z,7.85
2023-02-11T19:59:22.024Z,7.88
2023-02-11T20:01:48.980Z,7.81
2023-02-11T20:04:18.231Z,7.85
2023-02-11T20:06:45.220Z,7.85
2023-02-11T20:09:14.394Z,7.83
2023-02-11T20:11:41.484Z,7.78
2023-02-11T20:14:10.405Z,7.79
2023-02-11T20:16:47.972Z,7.86
2023-02-11T20:19:21.138Z,7.79
2023-02-11T20:21:50.771Z,7.78
2023-02-11T20:24:18.723Z,7.71
2023-02-11T20:26:47.954Z,7.73
2023-02-11T20:29:15.959Z,7.71
2023-02-11T20:31:43.011Z,7.73
2023-02-11T20:34:10.741Z,7.75
2023-02-11T20:36:38.622Z,7.80
2023-02-11T20:39:05.874Z,7.78
2023-02-11T20:41:34.533Z,7.71
2023-02-11T20:44:03.882Z,7.71
2023-02-11T20:46:33.118Z,7.73
2023-02-11T20:48:59.936Z,7.72
2023-02-11T20:51:30.384Z,7.77
2023-02-11T20:53:57.498Z,7.78
2023-02-11T20:56:29.865Z,7.72
2023-02-11T20:58:58.172Z,7.72
2023-02-11T21:01:27.941Z,7.75
2023-02-11T21:03:57.566Z,7.76
2023-02-11T21:06:30.282Z,7.77
2023-02-11T21:08:57.428Z,7.73
2023-02-11T21:11:24.051Z,7.76
2023-02-11T21:13:51.046Z,7.67
2023-02-11T21:16:22.516Z,7.66
2023-02-11T21:18:50.224Z,7.68
2023-02-11T21:21:18.790Z,7.67
2023-02-11T21:23:45.636Z,7.65
2023-02-11T21:26:12.494Z,7.63
2023-02-11T21:28:40.956Z,7.62
2023-02-11T21:31:07.815Z,7.57
2023-02-11T21:33:34.568Z,7.56
2023-02-11T21:36:04.529Z,7.55
2023-02-11T21:38:31.232Z,7.49
2023-02-11T21:41:03.848Z,7.53
2023-02-11T21:43:30.189Z,7.49
2023-02-11T21:45:57.107Z,7.44
2023-02-11T21:48:25.540Z,7.46
2023-02-11T21:50:52.866Z,7.52
2023-02-11T21:53:19.656Z,7.51
2023-02-11T21:55:45.972Z,7.53
2023-02-11T21:58:13.284Z,7.51
2023-02-11T22:00:40.231Z,7.51
2023-02-11T22:03:06.681Z,7.46
2023-02-11T22:05:33.052Z,7.50
2023-02-11T22:07:59.440Z,7.51
2023-02-11T22:10:25.781Z,7.50
2023-02-11T22:12:52.098Z,7.52
2023-02-11T22:15:18.503Z,7.54
2023-02-11T22:17:44.965Z,7.53
2023-02-11T22:20:11.681Z,7.55
2023-02-11T22:22:38.003Z,7.50
2023-02-11T22:25:04.586Z,7.51
2023-02-11T22:27:30.939Z,7.51
2023-02-11T22:29:57.291Z,7.49
2023-02-11T22:32:23.941Z,7.49
2023-02-11T22:34:53.104Z,7.56
2023-02-11T22:37:19.719Z,7.47
2023-02-11T22:39:46.277Z,7.52
2023-02-11T22:42:12.612Z,7.52
2023-02-11T22:44:38.981Z,7.48
2023-02-11T22:47:05.370Z,7.42
2023-02-11T22:49:33.065Z,7.44
2023-02-11T22:51:59.698Z,7.45
2023-02-11T22:54:26.174Z,7.49
2023-02-11T22:56:53.182Z,7.47
2023-02-11T22:59:20.706Z,7.53
2023-02-11T23:01:47.443Z,7.50
2023-02-11T23:04:16.899Z,7.49
2023-02-11T23:06:43.904Z,7.50
2023-02-11T23:09:12.189Z,7.51
2023-02-11T23:11:39.246Z,7.52
2023-02-11T23:14:08.020Z,7.49
2023-02-11T23:16:34.698Z,7.51
2023-02-11T23:19:05.469Z,7.43
2023-02-11T23:21:35.166Z,7.45
2023-02-11T23:24:05.720Z,7.47
2023-02-11T23:26:32.391Z,7.45
2023-02-11T23:28:59.748Z,7.49
2023-02-11T23:31:37.385Z,7.50
2023-02-11T23:34:04.215Z,7.47
2023-02-11T23:36:30.653Z,7.46
2023-02-11T23:38:57.071Z,7.41
2023-02-11T23:41:24.457Z,7.41
2023-02-11T23:43:52.743Z,7.36
2023-02-11T23:46:21.675Z,7.34
2023-02-11T23:48:49.494Z,7.43
2023-02-11T23:51:15.969Z,7.40
2023-02-11T23:53:42.443Z,7.44
2023-02-11T23:56:11.070Z,7.42
2023-02-11T23:58:37.460Z,7.48
